createdAt,value
2023-08-18T00:01:34.335Z,20.25
2023-08-18T00:04:59.455Z,20.219999
2023-08-18T00:08:24.670Z,20.23
2023-08-18T00:11:49.819Z,20.24
2023-08-18T00:15:14.991Z,20.24
2023-08-18T00:18:40.216Z,20.24
2023-08-18T00:22:05.353Z,20.25
2023-08-18T00:25:30.536Z,20.24
2023-08-18T00:28:55.698Z,20.209999
2023-08-18T00:32:20.876Z,20.200001
2023-08-18T00:35:46.058Z,20.209999
2023-08-18T00:39:11.208Z,20.23
2023-08-18T00:42:36.405Z,20.23
2023-08-18T00:46:01.606Z,20.190001
2023-08-18T00:49:26.756Z,20.200001
2023-08-18T00:52:51.966Z,20.200001
2023-08-18T00:56:17.094Z,20.23
2023-08-18T00:59:42.283Z,20.219999
2023-08-18T01:03:07.515Z,20.18
2023-08-18T01:06:32.658Z,20.129999
2023-08-18T01:09:57.916Z,20.040001
2023-08-18T01:13:23.025Z,19.969999
2023-08-18T01:16:48.256Z,19.889999
2023-08-18T01:20:13.346Z,19.83
2023-08-18T01:23:38.521Z,19.83
2023-08-18T01:27:03.731Z,19.82
2023-08-18T01:30:28.949Z,19.809999
2023-08-18T01:33:54.066Z,19.780001
2023-08-18T01:37:19.220Z,19.77
2023-08-18T01:40:44.401Z,19.76
2023-08-18T01:44:09.592Z,19.73
2023-08-18T01:47:34.773Z,19.68
2023-08-18T01:50:59.894Z,19.629999
2023-08-18T01:54:25.088Z,19.620001
2023-08-18T01:57:50.282Z,19.59
2023-08-18T02:01:15.496Z,19.52
2023-08-18T02:04:40.678Z,19.49
2023-08-18T02:08:05.834Z,19.469999
2023-08-18T02:11:31.000Z,19.459999
2023-08-18T02:14:56.186Z,19.450001
2023-08-18T02:18:21.377Z,19.469999
2023-08-18T02:21:46.595Z,19.469999
2023-08-18T02:25:11.750Z,19.450001
2023-08-18T02:28:36.946Z,19.440001
2023-08-18T02:32:02.138Z,19.42
2023-08-18T02:35:27.330Z,19.34
2023-08-18T02:38:52.455Z,19.290001
2023-08-18T02:42:17.622Z,19.299999
2023-08-18T02:45:42.837Z,19.27
2023-08-18T02:49:07.979Z,19.27
2023-08-18T02:52:33.199Z,19.299999
2023-08-18T02:55:58.360Z,19.299999
2023-08-18T02:59:23.577Z,19.299999
2023-08-18T03:02:48.747Z,19.280001
2023-08-18T03:06:13.892Z,19.26
2023-08-18T03:09:39.103Z,19.23
2023-08-18T03:13:04.276Z,19.190001
2023-08-18T03:16:29.475Z,19.09
2023-08-18T03:19:54.621Z,19
2023-08-18T03:23:19.871Z,18.940001
2023-08-18T03:26:45.016Z,18.889999
2023-08-18T03:30:10.156Z,18.85
2023-08-18T03:33:35.371Z,18.870001
2023-08-18T03:37:00.513Z,18.950001
2023-08-18T03:40:25.690Z,18.98
2023-08-18T03:43:50.866Z,18.99
2023-08-18T03:47:16.033Z,18.950001
2023-08-18T03:50:41.204Z,18.889999
2023-08-18T03:54:06.372Z,18.85
2023-08-18T03:57:31.857Z,18.84
2023-08-18T04:00:56.908Z,18.83
2023-08-18T04:04:22.035Z,18.85
2023-08-18T04:07:47.233Z,18.9
2023-08-18T04:11:12.436Z,18.959999
2023-08-18T04:14:37.653Z,19.030001
2023-08-18T04:18:02.876Z,19.09
2023-08-18T04:21:28.167Z,19.059999
2023-08-18T04:24:53.406Z,19.049999
2023-08-18T04:28:18.596Z,19.059999
2023-08-18T04:31:43.789Z,19.09
2023-08-18T04:35:08.975Z,19.17
2023-08-18T04:38:34.112Z,19.25
2023-08-18T04:41:59.317Z,19.299999
2023-08-18T04:45:24.499Z,19.34
2023-08-18T04:48:49.670Z,19.379999
2023-08-18T04:52:14.862Z,19.450001
2023-08-18T04:55:40.038Z,19.5
2023-08-18T04:59:05.248Z,19.540001
2023-08-18T05:02:30.676Z,19.58
2023-08-18T05:05:55.690Z,19.58
2023-08-18T05:09:20.879Z,19.58
2023-08-18T05:12:46.043Z,19.629999
2023-08-18T05:16:11.275Z,19.68
2023-08-18T05:19:36.436Z,19.74
2023-08-18T05:23:01.625Z,19.799999
2023-08-18T05:26:26.822Z,19.879999
2023-08-18T05:29:51.987Z,19.98
2023-08-18T05:33:17.152Z,20.120001
2023-08-18T05:36:42.366Z,20.26
2023-08-18T05:40:07.530Z,20.360001
2023-08-18T05:43:32.894Z,20.43
2023-08-18T05:46:57.954Z,20.459999
2023-08-18T05:50:23.132Z,20.540001
2023-08-18T05:53:48.302Z,20.65
2023-08-18T05:57:13.462Z,20.77
2023-08-18T06:00:38.706Z,20.9
2023-08-18T06:04:03.845Z,21.030001
2023-08-18T06:07:28.991Z,21.16
2023-08-18T06:10:54.165Z,21.280001
2023-08-18T06:14:19.355Z,21.440001
2023-08-18T06:17:44.621Z,21.57
2023-08-18T06:21:09.739Z,21.690001
2023-08-18T06:24:34.908Z,21.790001
2023-08-18T06:28:00.090Z,21.91
2023-08-18T06:31:25.291Z,21.99
2023-08-18T06:34:50.554Z,22.07
2023-08-18T06:38:15.628Z,22.129999
2023-08-18T06:41:40.825Z,22.209999
2023-08-18T06:45:06.007Z,22.26
2023-08-18T06:48:31.189Z,22.280001
2023-08-18T06:51:56.393Z,22.299999
2023-08-18T06:55:22.006Z,22.34
2023-08-18T06:58:47.861Z,22.34
2023-08-18T07:02:11.905Z,22.34
2023-08-18T07:05:37.077Z,22.370001
2023-08-18T07:09:02.279Z,22.389999
2023-08-18T07:12:27.611Z,22.379999
2023-08-18T07:15:52.644Z,22.4
2023-08-18T07:19:17.803Z,22.450001
2023-08-18T07:22:43.014Z,22.469999
2023-08-18T07:26:08.220Z,22.5
2023-08-18T07:29:33.660Z,22.540001
2023-08-18T07:32:58.913Z,22.620001
2023-08-18T07:36:24.057Z,22.709999
2023-08-18T07:39:49.232Z,22.799999
2023-08-18T07:43:14.421Z,22.93
2023-08-18T07:46:39.557Z,23.049999
2023-08-18T07:50:04.809Z,23.209999
2023-08-18T07:53:29.903Z,23.370001
2023-08-18T07:56:55.089Z,23.5
2023-08-18T08:00:20.320Z,23.67
2023-08-18T08:03:45.608Z,23.790001
2023-08-18T08:07:10.703Z,23.91
2023-08-18T08:10:35.879Z,23.98
2023-08-18T08:14:01.052Z,24.049999
2023-08-18T08:17:26.274Z,24.110001
2023-08-18T08:20:51.474Z,24.18
2023-08-18T08:24:16.659Z,24.219999
2023-08-18T08:27:41.854Z,24.27
2023-08-18T08:31:07.048Z,24.290001
2023-08-18T08:34:32.270Z,24.25
2023-08-18T08:37:57.699Z,24.23
2023-08-18T08:41:22.611Z,24.23
2023-08-18T08:44:47.812Z,24.24
2023-08-18T08:48:13.015Z,24.23
2023-08-18T08:51:38.226Z,24.26
2023-08-18T08:55:06.720Z,24.280001
2023-08-18T08:58:28.577Z,24.299999
2023-08-18T09:01:53.793Z,24.299999
2023-08-18T09:05:18.961Z,24.33
2023-08-18T09:08:44.192Z,24.35
2023-08-18T09:12:09.384Z,24.379999
2023-08-18T09:15:34.652Z,24.43
2023-08-18T09:18:59.860Z,24.469999
2023-08-18T09:22:25.068Z,24.52
2023-08-18T09:25:50.291Z,24.549999
2023-08-18T09:29:15.526Z,24.58
2023-08-18T09:32:40.722Z,24.629999
2023-08-18T09:36:05.924Z,24.73
2023-08-18T09:39:31.143Z,24.84
2023-08-18T09:42:56.391Z,24.92
2023-08-18T09:46:21.601Z,24.99
2023-08-18T09:49:46.747Z,25.049999
2023-08-18T09:53:11.973Z,25.15
2023-08-18T09:56:38.816Z,25.280001
2023-08-18T10:00:02.434Z,25.4
2023-08-18T10:03:27.530Z,25.540001
2023-08-18T10:06:52.688Z,25.67
2023-08-18T10:10:17.865Z,25.790001
2023-08-18T10:13:43.030Z,25.9
2023-08-18T10:17:09.281Z,25.99
2023-08-18T10:20:33.399Z,26.059999
2023-08-18T10:23:58.561Z,26.18
2023-08-18T10:27:23.746Z,26.309999
2023-08-18T10:30:48.935Z,26.43
2023-08-18T10:34:14.193Z,26.58
2023-08-18T10:37:39.380Z,26.690001
2023-08-18T10:41:04.572Z,26.83
2023-08-18T10:44:29.788Z,26.99
2023-08-18T10:47:55.003Z,27.1
2023-08-18T10:51:20.211Z,27.209999
2023-08-18T10:54:45.355Z,27.34
2023-08-18T10:58:10.557Z,27.459999
2023-08-18T11:01:35.737Z,27.530001
2023-08-18T11:05:00.901Z,27.629999
2023-08-18T11:08:26.148Z,27.73
2023-08-18T11:11:51.371Z,27.84
2023-08-18T11:15:16.563Z,27.9
2023-08-18T11:18:41.767Z,27.98
2023-08-18T11:22:06.968Z,28.030001
2023-08-18T11:25:32.183Z,28.110001
2023-08-18T11:28:57.428Z,28.17
2023-08-18T11:32:22.668Z,28.24
2023-08-18T11:35:47.840Z,28.35
2023-08-18T11:39:13.110Z,28.43
2023-08-18T11:42:38.348Z,28.440001
2023-08-18T11:46:03.569Z,28.459999
2023-08-18T11:49:28.774Z,28.469999
2023-08-18T11:52:53.986Z,28.52
2023-08-18T11:56:19.210Z,28.540001
2023-08-18T11:59:44.452Z,28.51
2023-08-18T12:03:09.703Z,28.459999
2023-08-18T12:06:34.887Z,28.4
2023-08-18T12:10:00.198Z,28.379999
2023-08-18T12:13:25.346Z,28.41
2023-08-18T12:16:50.588Z,28.48
2023-08-18T12:20:15.766Z,28.469999
2023-08-18T12:23:40.958Z,28.5
2023-08-18T12:27:06.153Z,28.530001
2023-08-18T12:30:31.333Z,28.540001
2023-08-18T12:33:56.617Z,28.59
2023-08-18T12:37:21.729Z,28.549999
2023-08-18T12:40:46.982Z,28.52
2023-08-18T12:44:12.182Z,28.49
2023-08-18T12:47:37.403Z,28.459999
2023-08-18T12:51:02.608Z,28.4
2023-08-18T12:54:27.815Z,28.4
2023-08-18T12:57:53.027Z,28.4
2023-08-18T13:01:18.264Z,28.42
2023-08-18T13:04:43.437Z,28.440001
2023-08-18T13:08:08.681Z,28.49
2023-08-18T13:11:33.863Z,28.549999
2023-08-18T13:14:59.075Z,28.629999
2023-08-18T13:18:24.283Z,28.709999
2023-08-18T13:21:49.491Z,28.77
2023-08-18T13:25:14.707Z,28.790001
2023-08-18T13:28:39.870Z,28.780001
2023-08-18T13:32:05.056Z,28.809999
2023-08-18T13:35:30.239Z,28.85
2023-08-18T13:38:55.440Z,28.9
2023-08-18T13:42:20.719Z,28.959999
2023-08-18T13:45:45.832Z,29.01
2023-08-18T13:49:11.028Z,29
2023-08-18T13:52:36.222Z,29.02
2023-08-18T13:56:01.412Z,29.040001
2023-08-18T13:59:26.625Z,29.049999
2023-08-18T14:02:51.831Z,29.02
2023-08-18T14:06:17.009Z,28.940001
2023-08-18T14:09:42.224Z,28.9
2023-08-18T14:13:07.434Z,28.870001
2023-08-18T14:16:32.726Z,28.790001
2023-08-18T14:19:57.817Z,28.82
2023-08-18T14:23:23.075Z,28.780001
2023-08-18T14:26:48.303Z,28.780001
2023-08-18T14:30:13.505Z,28.74
2023-08-18T14:33:46.103Z,28.700001
2023-08-18T14:37:03.900Z,28.57
2023-08-18T14:40:29.098Z,28.43
2023-08-18T14:43:54.299Z,28.43
2023-08-18T14:47:19.521Z,28.450001
2023-08-18T14:50:44.745Z,28.49
2023-08-18T14:54:09.966Z,28.559999
2023-08-18T14:57:35.201Z,28.6
2023-08-18T15:01:00.408Z,28.610001
2023-08-18T15:04:25.602Z,28.620001
2023-08-18T15:07:50.843Z,28.620001
2023-08-18T15:11:16.038Z,28.629999
2023-08-18T15:46:55.207Z,26.09
2023-08-18T15:50:20.470Z,27.02
2023-08-18T15:53:45.703Z,27.18
2023-08-18T15:57:10.966Z,27.34
2023-08-18T16:00:36.200Z,27.469999
2023-08-18T16:04:01.469Z,27.58
2023-08-18T16:07:26.666Z,27.67
2023-08-18T16:10:51.885Z,27.719999
2023-08-18T16:14:48.046Z,27.75
2023-08-18T16:17:42.298Z,27.790001
2023-08-18T16:21:07.486Z,27.809999
2023-08-18T16:24:32.676Z,27.799999
2023-08-18T16:27:57.909Z,27.790001
2023-08-18T16:31:23.138Z,27.790001
2023-08-18T16:34:48.351Z,27.77
2023-08-18T16:38:13.537Z,27.74
2023-08-18T16:41:38.715Z,27.700001
2023-08-18T16:45:03.931Z,27.66
2023-08-18T16:48:29.116Z,27.620001
2023-08-18T16:51:54.330Z,27.58
2023-08-18T16:55:19.566Z,27.530001
2023-08-18T16:58:44.728Z,27.5
2023-08-18T17:02:09.918Z,27.450001
2023-08-18T17:05:35.124Z,27.41
2023-08-18T17:09:00.324Z,27.370001
2023-08-18T17:12:25.542Z,27.309999
2023-08-18T17:15:50.722Z,27.26
2023-08-18T17:19:15.933Z,27.190001
2023-08-18T17:22:41.147Z,27.139999
2023-08-18T17:26:06.327Z,27.1
2023-08-18T17:29:31.583Z,27.01
2023-08-18T17:32:56.769Z,26.950001
2023-08-18T17:36:21.975Z,26.879999
2023-08-18T17:39:47.172Z,26.809999
2023-08-18T17:43:12.375Z,26.719999
2023-08-18T17:46:37.690Z,26.67
2023-08-18T17:50:02.833Z,26.59
2023-08-18T17:53:28.005Z,26.530001
2023-08-18T17:56:53.186Z,26.450001
2023-08-18T18:00:18.416Z,26.370001
2023-08-18T18:03:43.679Z,26.299999
2023-08-18T18:07:08.819Z,26.24
2023-08-18T18:10:34.066Z,26.16
2023-08-18T18:13:59.266Z,26.120001
2023-08-18T18:17:24.484Z,26.139999
2023-08-18T18:20:49.712Z,26.110001
2023-08-18T18:24:14.884Z,26.030001
2023-08-18T18:27:40.082Z,25.959999
2023-08-18T18:31:05.281Z,25.92
2023-08-18T18:34:30.448Z,25.879999
2023-08-18T18:37:55.698Z,25.82
2023-08-18T18:41:20.865Z,25.73
2023-08-18T18:44:46.073Z,25.639999
2023-08-18T18:48:11.325Z,25.549999
2023-08-18T18:51:36.449Z,25.459999
2023-08-18T18:55:01.681Z,25.370001
2023-08-18T18:58:26.848Z,25.26
2023-08-18T19:01:52.076Z,25.15
2023-08-18T19:05:17.301Z,25.049999
2023-08-18T19:08:42.503Z,24.99
2023-08-18T19:12:07.744Z,24.92
2023-08-18T19:15:32.939Z,24.83
2023-08-18T19:18:58.119Z,24.75
2023-08-18T19:22:23.306Z,24.700001
2023-08-18T19:25:48.498Z,24.639999
2023-08-18T19:29:13.765Z,24.610001
2023-08-18T19:32:38.958Z,24.559999
2023-08-18T19:36:04.155Z,24.49
2023-08-18T19:39:29.329Z,24.43
2023-08-18T19:42:54.535Z,24.370001
2023-08-18T19:46:19.767Z,24.32
2023-08-18T19:49:44.944Z,24.280001
2023-08-18T19:53:10.121Z,24.219999
2023-08-18T19:56:35.319Z,24.200001
2023-08-18T20:00:00.531Z,24.18
2023-08-18T20:03:25.729Z,24.129999
2023-08-18T20:06:50.906Z,24.049999
2023-08-18T20:10:16.111Z,23.950001
2023-08-18T20:13:41.315Z,23.870001
2023-08-18T20:17:06.529Z,23.77
2023-08-18T20:20:31.751Z,23.709999
2023-08-18T20:23:56.915Z,23.68
2023-08-18T20:27:22.132Z,23.620001
2023-08-18T20:30:47.378Z,23.58
2023-08-18T20:34:12.520Z,23.549999
2023-08-18T20:37:37.736Z,23.5
2023-08-18T20:41:02.888Z,23.459999
2023-08-18T20:44:28.090Z,23.440001
2023-08-18T20:47:53.298Z,23.41
2023-08-18T20:51:18.482Z,23.379999
2023-08-18T20:54:43.699Z,23.34
2023-08-18T20:58:08.861Z,23.299999
2023-08-18T21:01:34.045Z,23.26
2023-08-18T21:04:59.255Z,23.190001
2023-08-18T21:08:24.443Z,23.16
2023-08-18T21:11:49.662Z,23.120001
2023-08-18T21:15:14.832Z,23.1
2023-08-18T21:18:40.019Z,23.059999
2023-08-18T21:22:05.201Z,23.049999
2023-08-18T21:25:30.382Z,23.059999
2023-08-18T21:28:55.596Z,23.059999
2023-08-18T21:32:20.772Z,23.07
2023-08-18T21:35:45.969Z,23.040001
2023-08-18T21:39:11.136Z,23.040001
2023-08-18T21:42:36.337Z,23.01
2023-08-18T21:46:01.627Z,22.99
2023-08-18T21:49:26.698Z,22.950001
2023-08-18T21:52:51.897Z,22.889999
2023-08-18T21:56:17.082Z,22.84
2023-08-18T21:59:42.275Z,22.790001
2023-08-18T22:03:07.501Z,22.73
2023-08-18T22:06:32.619Z,22.719999
2023-08-18T22:09:57.810Z,22.68
2023-08-18T22:13:23.030Z,22.629999
2023-08-18T22:16:48.172Z,22.629999
2023-08-18T22:20:13.398Z,22.629999
2023-08-18T22:23:38.549Z,22.6
2023-08-18T22:27:03.732Z,22.58
2023-08-18T22:30:28.904Z,22.540001
2023-08-18T22:33:54.067Z,22.51
2023-08-18T22:37:19.356Z,22.459999
2023-08-18T22:40:44.426Z,22.42
2023-08-18T22:44:09.619Z,22.379999
2023-08-18T22:47:35.070Z,22.360001
2023-08-18T22:51:00.025Z,22.33
2023-08-18T22:54:25.210Z,22.299999
2023-08-18T22:57:50.352Z,22.32
2023-08-18T23:01:15.589Z,22.309999
2023-08-18T23:04:40.726Z,22.309999
2023-08-18T23:08:05.898Z,22.280001
2023-08-18T23:11:31.123Z,22.23
2023-08-18T23:14:56.306Z,22.23
2023-08-18T23:18:21.493Z,22.209999
2023-08-18T23:21:46.681Z,22.18
2023-08-18T23:25:11.872Z,22.139999
2023-08-18T23:28:37.101Z,22.120001
2023-08-18T23:32:02.258Z,22.09
2023-08-18T23:35:27.429Z,22.09
2023-08-18T23:38:52.655Z,22.049999
2023-08-18T23:42:17.851Z,21.99
2023-08-18T23:45:43.066Z,21.92
2023-08-18T23:49:08.245Z,21.870001
2023-08-18T23:52:33.513Z,21.809999
2023-08-18T23:55:58.631Z,21.799999
2023-08-18T23:59:23.844Z,21.780001
